Time;durP1;ratioP1;P1;durP2;ratioP2;P2;SDS_P1;SDS_P2;PMS_P1;PMS_P2;Temp;Humidity;BMP_temperature;BMP_pressure;BME280_temperature;BME280_humidity;BME280_pressure;Samples;Min_cycle;Max_cycle;Signal;HPM_P1;HPM_P2
2023/09/20 00:00:51;;;;;;;5.67;1.90;;;;;;;;;;5058881;28;20443;-64
2023/09/20 00:03:19;;;;;;;6.03;2.35;;;;;;;;;;5057451;28;20778;-64
2023/09/20 00:05:47;;;;;;;5.13;2.08;;;;;;;;;;5060670;28;20495;-64
2023/09/20 00:08:14;;;;;;;3.60;1.85;;;;;;;;;;5058569;28;20941;-64
2023/09/20 00:10:45;;;;;;;5.30;2.10;;;;;;;;;;5059834;28;20487;-63
2023/09/20 00:13:12;;;;;;;3.47;1.85;;;;;;;;;;5060759;28;20781;-64
2023/09/20 00:15:42;;;;;;;7.63;2.00;;;;;;;;;;5059675;28;20470;-63
2023/09/20 00:18:09;;;;;;;7.22;2.25;;;;;;;;;;5060750;28;20409;-64
2023/09/20 00:20:39;;;;;;;7.07;1.90;;;;;;;;;;5063994;28;20499;-64
2023/09/20 00:23:07;;;;;;;6.70;2.25;;;;;;;;;;5064495;28;20423;-64
2023/09/20 00:25:34;;;;;;;5.85;2.20;;;;;;;;;;5062591;28;20953;-63
2023/09/20 00:28:02;;;;;;;6.45;2.10;;;;;;;;;;5062416;28;20467;-64
2023/09/20 00:30:29;;;;;;;6.22;1.98;;;;;;;;;;5053014;28;20401;-63
2023/09/20 00:33:01;;;;;;;5.63;2.10;;;;;;;;;;5053292;28;20802;-64
2023/09/20 00:35:28;;;;;;;5.72;2.20;;;;;;;;;;5060560;28;20527;-63
2023/09/20 00:37:55;;;;;;;6.57;2.10;;;;;;;;;;5063339;28;20411;-63
2023/09/20 00:40:23;;;;;;;4.28;1.88;;;;;;;;;;5061924;28;20528;-63
2023/09/20 00:42:51;;;;;;;4.93;2.00;;;;;;;;;;5064011;28;20411;-62
2023/09/20 00:45:19;;;;;;;3.80;2.05;;;;;;;;;;5064434;28;20817;-64
2023/09/20 00:47:51;;;;;;;5.55;2.20;;;;;;;;;;5062470;28;20420;-62
2023/09/20 00:50:19;;;;;;;6.28;2.13;;;;;;;;;;5065394;28;20422;-64
2023/09/20 00:52:51;;;;;;;6.60;2.30;;;;;;;;;;5062284;28;20421;-63
2023/09/20 00:55:20;;;;;;;5.63;1.80;;;;;;;;;;5061543;28;20764;-64
2023/09/20 00:57:48;;;;;;;6.57;2.13;;;;;;;;;;5062917;28;20785;-64
2023/09/20 01:00:21;;;;;;;6.25;1.80;;;;;;;;;;5063908;28;20786;-64
2023/09/20 01:02:51;;;;;;;6.32;2.40;;;;;;;;;;5062848;28;20780;-63
2023/09/20 01:05:21;;;;;;;5.78;2.08;;;;;;;;;;5061134;28;20420;-64
2023/09/20 01:07:50;;;;;;;5.75;2.08;;;;;;;;;;5062628;28;20421;-63
2023/09/20 01:10:18;;;;;;;4.83;1.90;;;;;;;;;;5063251;28;20528;-63
2023/09/20 01:12:45;;;;;;;5.93;2.30;;;;;;;;;;5062302;28;20410;-64
2023/09/20 01:15:12;;;;;;;5.88;2.17;;;;;;;;;;5060866;28;20927;-64
2023/09/20 01:17:45;;;;;;;7.63;2.10;;;;;;;;;;5063105;28;20400;-63
2023/09/20 01:20:13;;;;;;;5.07;2.10;;;;;;;;;;5063782;28;20407;-64
2023/09/20 01:22:42;;;;;;;4.05;1.90;;;;;;;;;;5061743;28;20409;-63
2023/09/20 01:25:11;;;;;;;6.13;2.15;;;;;;;;;;5061041;28;20405;-64
2023/09/20 01:27:40;;;;;;;5.80;2.25;;;;;;;;;;5061562;28;20459;-64
2023/09/20 01:30:08;;;;;;;5.13;2.10;;;;;;;;;;5060816;28;20420;-63
2023/09/20 01:32:36;;;;;;;4.82;2.00;;;;;;;;;;5061093;28;20460;-64
2023/09/20 01:35:04;;;;;;;6.80;2.10;;;;;;;;;;5061312;28;20512;-63
2023/09/20 01:37:31;;;;;;;6.60;2.20;;;;;;;;;;5063382;28;20408;-63
2023/09/20 01:39:59;;;;;;;6.68;2.45;;;;;;;;;;5062134;28;20428;-64
2023/09/20 01:42:27;;;;;;;4.32;2.20;;;;;;;;;;5060592;28;20462;-64
2023/09/20 01:44:54;;;;;;;6.43;2.10;;;;;;;;;;5064060;28;20416;-64
2023/09/20 01:47:21;;;;;;;4.40;1.83;;;;;;;;;;5060413;28;20409;-63
2023/09/20 01:49:49;;;;;;;4.47;1.83;;;;;;;;;;5059169;28;20411;-64
2023/09/20 01:52:16;;;;;;;8.52;2.30;;;;;;;;;;5062567;28;20778;-63
2023/09/20 01:54:43;;;;;;;6.72;2.25;;;;;;;;;;5060156;28;20432;-64
2023/09/20 01:57:11;;;;;;;7.13;2.42;;;;;;;;;;5061665;28;20465;-64
2023/09/20 01:59:38;;;;;;;6.43;2.00;;;;;;;;;;5058035;28;20416;-64
2023/09/20 02:02:05;;;;;;;5.57;2.10;;;;;;;;;;5062885;28;21003;-63
2023/09/20 02:04:33;;;;;;;6.68;2.22;;;;;;;;;;5064527;28;20445;-64
2023/09/20 02:07:00;;;;;;;4.65;1.98;;;;;;;;;;5053267;28;20436;-64
2023/09/20 02:09:27;;;;;;;5.07;2.17;;;;;;;;;;5056716;28;20417;-64
2023/09/20 02:11:54;;;;;;;6.93;2.30;;;;;;;;;;5062362;28;20411;-63
2023/09/20 02:14:22;;;;;;;4.63;2.00;;;;;;;;;;5060775;28;20425;-64
2023/09/20 02:16:50;;;;;;;6.65;2.30;;;;;;;;;;5060143;28;20467;-64
2023/09/20 02:19:19;;;;;;;7.28;2.40;;;;;;;;;;5062032;28;20420;-64
2023/09/20 02:21:46;;;;;;;5.90;2.70;;;;;;;;;;5062404;28;20795;-64
2023/09/20 02:24:14;;;;;;;4.97;2.00;;;;;;;;;;5055733;28;20418;-64
2023/09/20 02:26:42;;;;;;;5.20;2.50;;;;;;;;;;5062339;28;20855;-64
2023/09/20 02:29:10;;;;;;;7.40;2.38;;;;;;;;;;5063131;28;20411;-64
2023/09/20 02:31:38;;;;;;;5.68;2.60;;;;;;;;;;5060835;28;20443;-64
2023/09/20 02:34:05;;;;;;;5.60;2.20;;;;;;;;;;5061900;28;20407;-64
2023/09/20 02:36:32;;;;;;;6.60;2.50;;;;;;;;;;5060537;28;20413;-63
2023/09/20 02:38:59;;;;;;;6.30;2.40;;;;;;;;;;5059776;28;20409;-64
2023/09/20 02:41:26;;;;;;;7.95;2.60;;;;;;;;;;5050666;28;20397;-63
2023/09/20 02:43:53;;;;;;;6.23;2.27;;;;;;;;;;5050684;28;20409;-64
2023/09/20 02:46:21;;;;;;;6.50;2.42;;;;;;;;;;5050878;28;20756;-63
2023/09/20 02:48:50;;;;;;;7.20;2.70;;;;;;;;;;5050916;28;20413;-63
2023/09/20 02:51:17;;;;;;;7.47;2.35;;;;;;;;;;5050708;28;20417;-64
2023/09/20 02:53:44;;;;;;;6.80;2.53;;;;;;;;;;5057756;28;20824;-63
2023/09/20 02:56:12;;;;;;;6.93;2.50;;;;;;;;;;5061561;28;20435;-64
2023/09/20 02:58:39;;;;;;;7.22;2.42;;;;;;;;;;5059431;28;20417;-63
2023/09/20 03:01:09;;;;;;;7.57;2.25;;;;;;;;;;5060275;28;20424;-64
2023/09/20 03:03:36;;;;;;;7.72;2.50;;;;;;;;;;5059099;28;20413;-64
2023/09/20 03:06:10;;;;;;;6.35;2.58;;;;;;;;;;5060741;28;20408;-64
2023/09/20 03:08:41;;;;;;;5.53;2.30;;;;;;;;;;5059108;28;20441;-63
2023/09/20 03:11:09;;;;;;;7.80;2.55;;;;;;;;;;5059402;28;20504;-64
2023/09/20 03:13:36;;;;;;;6.28;2.42;;;;;;;;;;5059058;28;20903;-62
2023/09/20 03:16:04;;;;;;;7.07;2.20;;;;;;;;;;5060130;28;20487;-63
2023/09/20 03:18:33;;;;;;;7.57;2.30;;;;;;;;;;5061326;28;21078;-64
2023/09/20 03:21:05;;;;;;;8.57;2.50;;;;;;;;;;5060607;28;20902;-64
2023/09/20 03:23:33;;;;;;;7.00;2.53;;;;;;;;;;5059085;28;20416;-64
2023/09/20 03:26:01;;;;;;;6.32;2.83;;;;;;;;;;5060160;28;20821;-64
2023/09/20 03:28:28;;;;;;;5.75;2.20;;;;;;;;;;5061587;28;20416;-64
2023/09/20 03:30:56;;;;;;;6.00;2.40;;;;;;;;;;5059828;28;20413;-64
2023/09/20 03:33:23;;;;;;;6.13;2.70;;;;;;;;;;5058975;28;20475;-64
2023/09/20 03:35:51;;;;;;;7.50;2.47;;;;;;;;;;5059295;28;20421;-64
2023/09/20 03:38:19;;;;;;;8.00;2.58;;;;;;;;;;5059420;28;20417;-64
2023/09/20 03:40:47;;;;;;;8.57;2.67;;;;;;;;;;5061335;28;20411;-64
2023/09/20 03:43:14;;;;;;;6.85;2.78;;;;;;;;;;5060499;28;20416;-63
2023/09/20 03:45:43;;;;;;;8.40;2.90;;;;;;;;;;5058575;28;20436;-62
2023/09/20 03:48:10;;;;;;;6.28;2.60;;;;;;;;;;5060500;28;20411;-64
2023/09/20 03:50:38;;;;;;;6.40;2.65;;;;;;;;;;5061355;28;20411;-64
2023/09/20 03:53:05;;;;;;;7.00;2.60;;;;;;;;;;5061391;28;20427;-65
2023/09/20 03:55:33;;;;;;;9.45;2.78;;;;;;;;;;5063060;28;20429;-65
2023/09/20 03:58:03;;;;;;;5.33;2.50;;;;;;;;;;5065155;28;21001;-65
2023/09/20 04:00:31;;;;;;;6.25;2.28;;;;;;;;;;5064634;28;20452;-64
2023/09/20 04:02:58;;;;;;;6.80;2.53;;;;;;;;;;5062768;28;20448;-64
2023/09/20 04:05:26;;;;;;;5.25;2.65;;;;;;;;;;5062680;28;20409;-65
2023/09/20 04:07:54;;;;;;;6.10;2.53;;;;;;;;;;5062600;28;20405;-65
2023/09/20 04:10:21;;;;;;;7.05;2.40;;;;;;;;;;5062225;28;20823;-65
2023/09/20 04:12:48;;;;;;;4.22;2.17;;;;;;;;;;5062406;28;20423;-64
2023/09/20 04:15:17;;;;;;;5.37;2.13;;;;;;;;;;5062459;28;20425;-65
2023/09/20 04:17:44;;;;;;;5.47;2.30;;;;;;;;;;5062891;28;20417;-65
2023/09/20 04:20:12;;;;;;;3.35;2.20;;;;;;;;;;5064591;28;20410;-65
2023/09/20 04:22:41;;;;;;;6.70;2.88;;;;;;;;;;5060822;28;20514;-65
2023/09/20 04:25:10;;;;;;;8.95;2.90;;;;;;;;;;5064631;28;20963;-64
2023/09/20 04:27:37;;;;;;;5.50;2.40;;;;;;;;;;5063493;28;20445;-65
2023/09/20 04:30:07;;;;;;;7.28;2.50;;;;;;;;;;5061817;28;20974;-64
2023/09/20 04:32:35;;;;;;;4.90;2.20;;;;;;;;;;5063470;28;21124;-65
2023/09/20 04:35:04;;;;;;;6.05;2.22;;;;;;;;;;5064427;28;20428;-63
2023/09/20 04:37:31;;;;;;;5.50;2.17;;;;;;;;;;5062389;28;20440;-64
2023/09/20 04:39:58;;;;;;;5.53;2.17;;;;;;;;;;5062466;28;20409;-65
2023/09/20 04:42:26;;;;;;;5.28;2.25;;;;;;;;;;5065083;28;20440;-65
2023/09/20 04:44:53;;;;;;;3.63;1.92;;;;;;;;;;5063449;28;20563;-63
2023/09/20 04:47:20;;;;;;;5.03;2.10;;;;;;;;;;5061245;28;20411;-65
2023/09/20 04:49:48;;;;;;;6.60;2.30;;;;;;;;;;5062589;28;20409;-64
2023/09/20 04:52:16;;;;;;;5.20;2.17;;;;;;;;;;5061520;28;20420;-65
2023/09/20 04:54:44;;;;;;;4.85;2.25;;;;;;;;;;5063392;28;20416;-65
2023/09/20 04:57:12;;;;;;;5.35;2.55;;;;;;;;;;5064087;28;20477;-64
2023/09/20 04:59:40;;;;;;;6.38;2.40;;;;;;;;;;5052943;28;20761;-65
2023/09/20 05:02:08;;;;;;;6.03;2.53;;;;;;;;;;5054309;28;20421;-65
2023/09/20 05:04:35;;;;;;;4.35;2.20;;;;;;;;;;5052011;28;20445;-65
2023/09/20 05:07:05;;;;;;;6.03;2.00;;;;;;;;;;5052424;28;20488;-64
2023/09/20 05:09:34;;;;;;;6.55;2.35;;;;;;;;;;5052806;28;20868;-65
2023/09/20 05:12:02;;;;;;;6.05;2.33;;;;;;;;;;5058773;28;20894;-65
2023/09/20 05:14:29;;;;;;;5.20;2.47;;;;;;;;;;5062643;28;20854;-64
2023/09/20 05:16:56;;;;;;;5.53;2.20;;;;;;;;;;5061101;28;20460;-65
2023/09/20 05:19:23;;;;;;;4.50;2.07;;;;;;;;;;5060481;28;20481;-64
2023/09/20 05:21:50;;;;;;;5.63;2.30;;;;;;;;;;5058361;28;20499;-65
2023/09/20 05:24:19;;;;;;;6.38;2.13;;;;;;;;;;5063658;28;20776;-64
2023/09/20 05:26:46;;;;;;;5.25;2.35;;;;;;;;;;5061070;28;20508;-64
2023/09/20 05:29:13;;;;;;;4.40;2.40;;;;;;;;;;5064727;28;20478;-64
2023/09/20 05:31:40;;;;;;;5.53;2.30;;;;;;;;;;5060864;28;20504;-64
2023/09/20 05:34:07;;;;;;;5.20;2.05;;;;;;;;;;5064381;28;20863;-65
2023/09/20 05:36:34;;;;;;;4.63;2.17;;;;;;;;;;5064774;28;20423;-64
2023/09/20 05:39:01;;;;;;;4.50;2.20;;;;;;;;;;5060825;28;20414;-64
2023/09/20 05:41:29;;;;;;;4.90;2.50;;;;;;;;;;5064610;28;20418;-64
2023/09/20 05:43:56;;;;;;;4.68;2.20;;;;;;;;;;5060301;28;20793;-65
2023/09/20 05:46:24;;;;;;;4.07;2.08;;;;;;;;;;5062594;28;20513;-65
2023/09/20 05:48:52;;;;;;;5.00;2.15;;;;;;;;;;5062889;28;20456;-65
2023/09/20 05:51:19;;;;;;;3.65;1.90;;;;;;;;;;5062933;28;20421;-64
2023/09/20 05:53:47;;;;;;;4.60;2.28;;;;;;;;;;5061950;28;20407;-65
2023/09/20 05:56:14;;;;;;;5.78;2.35;;;;;;;;;;5060454;28;20929;-64
2023/09/20 05:58:44;;;;;;;4.83;2.43;;;;;;;;;;5061649;28;20404;-65
2023/09/20 06:01:12;;;;;;;6.43;2.20;;;;;;;;;;5063101;28;20503;-65
2023/09/20 06:03:40;;;;;;;4.93;2.22;;;;;;;;;;5062726;28;20448;-65
2023/09/20 06:06:07;;;;;;;4.15;2.03;;;;;;;;;;5062758;28;20770;-63
2023/09/20 06:08:35;;;;;;;5.75;2.40;;;;;;;;;;5056504;28;20428;-60
2023/09/20 06:11:04;;;;;;;6.50;2.30;;;;;;;;;;5052098;28;20420;-61
2023/09/20 06:13:32;;;;;;;7.10;2.33;;;;;;;;;;5053887;28;20482;-61
2023/09/20 06:16:00;;;;;;;4.85;2.40;;;;;;;;;;5054740;28;20433;-63
2023/09/20 06:18:27;;;;;;;5.35;2.50;;;;;;;;;;5054503;28;20420;-63
2023/09/20 06:20:55;;;;;;;4.43;2.17;;;;;;;;;;5050129;28;20439;-63
2023/09/20 06:23:24;;;;;;;6.07;2.57;;;;;;;;;;5057359;28;20956;-62
2023/09/20 06:25:51;;;;;;;6.93;2.70;;;;;;;;;;5049418;28;20418;-62
2023/09/20 06:28:19;;;;;;;7.10;2.42;;;;;;;;;;5056227;28;20421;-64
2023/09/20 06:30:47;;;;;;;7.63;2.50;;;;;;;;;;5054655;28;20425;-64
2023/09/20 06:33:16;;;;;;;5.97;2.42;;;;;;;;;;5053632;28;20425;-64
2023/09/20 06:35:44;;;;;;;6.70;2.00;;;;;;;;;;5049976;28;20942;-64
2023/09/20 06:38:11;;;;;;;6.10;2.28;;;;;;;;;;5053570;28;20490;-63
2023/09/20 06:40:39;;;;;;;7.95;2.40;;;;;;;;;;5056674;28;20436;-63
2023/09/20 06:43:07;;;;;;;7.93;2.42;;;;;;;;;;5057050;28;20440;-64
2023/09/20 06:45:34;;;;;;;7.25;2.40;;;;;;;;;;5058033;28;20833;-64
2023/09/20 06:48:02;;;;;;;6.05;2.25;;;;;;;;;;5052568;28;20493;-64
2023/09/20 06:50:30;;;;;;;5.10;2.55;;;;;;;;;;5058068;28;20431;-64
2023/09/20 06:52:59;;;;;;;5.15;2.45;;;;;;;;;;5053621;28;20422;-63
2023/09/20 06:55:26;;;;;;;6.32;2.30;;;;;;;;;;5049716;28;20436;-63
2023/09/20 06:57:53;;;;;;;6.33;2.43;;;;;;;;;;5051005;28;20419;-63
2023/09/20 07:00:25;;;;;;;4.80;2.10;;;;;;;;;;5046898;28;20533;-63
2023/09/20 07:02:52;;;;;;;4.35;2.20;;;;;;;;;;5052415;28;20436;-63
2023/09/20 07:05:21;;;;;;;3.95;2.13;;;;;;;;;;5049517;28;21049;-64
2023/09/20 07:07:49;;;;;;;3.95;2.10;;;;;;;;;;5049931;28;20977;-65
2023/09/20 07:10:16;;;;;;;3.75;2.35;;;;;;;;;;5053037;28;20463;-65
2023/09/20 07:12:44;;;;;;;4.07;2.30;;;;;;;;;;5050807;28;20506;-64
2023/09/20 07:15:14;;;;;;;7.43;2.22;;;;;;;;;;5050344;28;20417;-64
2023/09/20 07:17:42;;;;;;;4.43;2.05;;;;;;;;;;5057285;28;20931;-64
2023/09/20 07:20:14;;;;;;;5.43;2.20;;;;;;;;;;5056548;28;20415;-64
2023/09/20 07:22:41;;;;;;;5.07;1.83;;;;;;;;;;5051696;28;20417;-63
2023/09/20 07:25:19;;;;;;;5.00;2.30;;;;;;;;;;5056621;28;20407;-63
2023/09/20 07:27:47;;;;;;;4.20;2.10;;;;;;;;;;5057583;28;20432;-65
2023/09/20 07:30:17;;;;;;;3.65;2.03;;;;;;;;;;5062462;28;20434;-62
2023/09/20 07:32:45;;;;;;;6.55;2.22;;;;;;;;;;5060938;28;20411;-65
2023/09/20 07:35:26;;;;;;;4.65;2.05;;;;;;;;;;5058645;28;20420;-64
2023/09/20 07:37:55;;;;;;;5.38;2.05;;;;;;;;;;5053942;28;20444;-64
2023/09/20 07:40:26;;;;;;;4.47;2.13;;;;;;;;;;5055420;28;20899;-63
2023/09/20 07:42:54;;;;;;;4.57;2.15;;;;;;;;;;5057766;28;20502;-60
2023/09/20 07:45:22;;;;;;;4.78;2.00;;;;;;;;;;5054165;28;20443;-61
2023/09/20 07:47:49;;;;;;;4.72;1.83;;;;;;;;;;5057527;28;20504;-60
2023/09/20 07:50:16;;;;;;;4.43;2.20;;;;;;;;;;5059960;28;20459;-59
2023/09/20 07:52:44;;;;;;;5.13;1.85;;;;;;;;;;5055958;28;20896;-60
2023/09/20 07:55:11;;;;;;;4.35;1.88;;;;;;;;;;5060913;28;20908;-60
2023/09/20 07:57:40;;;;;;;4.50;2.10;;;;;;;;;;5055908;28;20863;-60
2023/09/20 08:00:10;;;;;;;5.43;2.17;;;;;;;;;;5059612;28;20430;-60
2023/09/20 08:02:38;;;;;;;3.25;1.90;;;;;;;;;;5054126;28;20975;-60
2023/09/20 08:05:06;;;;;;;3.87;1.83;;;;;;;;;;5053552;28;20405;-60
2023/09/20 08:07:33;;;;;;;6.60;2.00;;;;;;;;;;5059407;28;20770;-61
2023/09/20 08:10:00;;;;;;;2.90;1.60;;;;;;;;;;5063487;28;20407;-60
2023/09/20 08:12:27;;;;;;;2.72;1.77;;;;;;;;;;5057057;28;20459;-61
2023/09/20 08:14:57;;;;;;;3.07;1.90;;;;;;;;;;5056882;28;20463;-60
2023/09/20 08:20:10;;;;;;;3.22;1.83;;;;;;;;;;5057549;28;20903;-60
2023/09/20 09:01:13;;;;;;;6.70;1.73;;;;;;;;;;5060695;28;20378;-64
2023/09/20 09:03:41;;;;;;;3.53;1.60;;;;;;;;;;5062388;28;20525;-64
2023/09/20 09:06:09;;;;;;;3.40;1.50;;;;;;;;;;5069697;28;20487;-65
2023/09/20 09:08:36;;;;;;;3.03;1.37;;;;;;;;;;5070484;28;20931;-64
2023/09/20 09:11:03;;;;;;;2.83;1.55;;;;;;;;;;5067979;28;20427;-65
2023/09/20 09:13:30;;;;;;;4.30;1.60;;;;;;;;;;5060515;28;20413;-65
2023/09/20 09:15:57;;;;;;;3.60;1.60;;;;;;;;;;5066982;28;20408;-65
2023/09/20 09:18:24;;;;;;;3.30;1.60;;;;;;;;;;5059892;28;20440;-64
2023/09/20 09:20:53;;;;;;;3.45;1.60;;;;;;;;;;5068133;28;20408;-65
2023/09/20 09:23:45;;;;;;;4.53;1.42;;;;;;;;;;5070089;28;20407;-65
2023/09/20 09:26:12;;;;;;;3.10;1.47;;;;;;;;;;5053103;28;20473;-64
2023/09/20 09:28:41;;;;;;;2.22;1.42;;;;;;;;;;5062552;28;20416;-65
2023/09/20 09:31:09;;;;;;;2.67;1.90;;;;;;;;;;5067513;28;20486;-65
2023/09/20 09:33:36;;;;;;;2.60;1.48;;;;;;;;;;5065203;28;20495;-65
2023/09/20 09:36:05;;;;;;;4.28;1.40;;;;;;;;;;5066046;28;20835;-65
2023/09/20 09:38:34;;;;;;;2.80;1.40;;;;;;;;;;5069397;28;20419;-65
2023/09/20 09:41:01;;;;;;;4.38;1.48;;;;;;;;;;5060117;28;20794;-64
2023/09/20 09:43:29;;;;;;;4.43;1.60;;;;;;;;;;5052581;28;20467;-64
2023/09/20 09:45:56;;;;;;;2.37;1.50;;;;;;;;;;5059209;28;20494;-64
2023/09/20 09:48:24;;;;;;;2.47;1.33;;;;;;;;;;5051629;28;20783;-64
2023/09/20 09:50:52;;;;;;;2.95;1.35;;;;;;;;;;5057647;28;20957;-64
2023/09/20 09:53:21;;;;;;;3.00;1.35;;;;;;;;;;5059063;28;20412;-64
2023/09/20 09:55:49;;;;;;;4.40;1.83;;;;;;;;;;5057129;28;20830;-64
2023/09/20 09:58:16;;;;;;;3.83;1.30;;;;;;;;;;5055557;28;20767;-64
2023/09/20 10:00:45;;;;;;;2.15;1.10;;;;;;;;;;5056097;28;20417;-64
2023/09/20 10:03:19;;;;;;;3.13;1.25;;;;;;;;;;5056174;28;20412;-73
2023/09/20 10:05:47;;;;;;;5.15;1.42;;;;;;;;;;5051942;28;20414;-62
2023/09/20 10:08:15;;;;;;;2.10;1.20;;;;;;;;;;5054907;28;20408;-62
2023/09/20 10:10:44;;;;;;;4.35;1.50;;;;;;;;;;5053764;28;20459;-64
2023/09/20 10:13:14;;;;;;;5.53;1.60;;;;;;;;;;5054379;28;20411;-64
2023/09/20 10:15:43;;;;;;;2.65;1.23;;;;;;;;;;5054433;28;20765;-64
2023/09/20 10:18:10;;;;;;;3.30;1.50;;;;;;;;;;5061142;28;20494;-65
2023/09/20 10:20:58;;;;;;;2.88;1.40;;;;;;;;;;5054401;28;20454;-64
2023/09/20 10:23:25;;;;;;;4.32;1.52;;;;;;;;;;5056674;28;20413;-65
2023/09/20 10:26:00;;;;;;;3.92;1.60;;;;;;;;;;5057468;28;20413;-67
2023/09/20 10:28:28;;;;;;;4.13;1.60;;;;;;;;;;5056640;28;20957;-66
2023/09/20 10:31:03;;;;;;;4.25;1.50;;;;;;;;;;5057359;28;20459;-66
2023/09/20 10:33:41;;;;;;;3.08;1.48;;;;;;;;;;5056375;28;20447;-65
2023/09/20 10:36:08;;;;;;;3.42;1.63;;;;;;;;;;5050931;28;20439;-66
2023/09/20 10:38:35;;;;;;;4.38;1.60;;;;;;;;;;5059793;28;20413;-65
2023/09/20 10:41:07;;;;;;;3.38;1.30;;;;;;;;;;5053120;28;20421;-65
2023/09/20 10:43:51;;;;;;;3.20;1.60;;;;;;;;;;5054563;28;20441;-65
2023/09/20 10:46:19;;;;;;;3.90;1.60;;;;;;;;;;5054263;28;20415;-65
2023/09/20 10:48:50;;;;;;;3.17;1.45;;;;;;;;;;5055429;28;20420;-65
2023/09/20 10:51:36;;;;;;;5.18;1.50;;;;;;;;;;5058298;28;20412;-64
2023/09/20 10:54:03;;;;;;;3.70;1.50;;;;;;;;;;5055130;28;20416;-63
2023/09/20 10:56:54;;;;;;;2.90;1.20;;;;;;;;;;5053901;28;20440;-63
2023/09/20 10:59:22;;;;;;;3.63;1.50;;;;;;;;;;5054768;28;20409;-64
2023/09/20 11:01:52;;;;;;;3.50;1.40;;;;;;;;;;5054490;28;20466;-65
2023/09/20 11:04:19;;;;;;;2.33;1.30;;;;;;;;;;5053139;28;20414;-65
2023/09/20 11:06:47;;;;;;;4.20;1.45;;;;;;;;;;5054028;28;20478;-65
2023/09/20 11:09:14;;;;;;;3.55;1.60;;;;;;;;;;5053566;28;20542;-64
2023/09/20 11:11:44;;;;;;;2.53;1.60;;;;;;;;;;5055459;28;20413;-64
2023/09/20 11:14:13;;;;;;;4.03;1.50;;;;;;;;;;5054770;28;20408;-64
2023/09/20 11:16:42;;;;;;;2.93;1.43;;;;;;;;;;5065039;28;20493;-64
2023/09/20 11:19:11;;;;;;;2.25;1.30;;;;;;;;;;5061934;28;20409;-64
2023/09/20 11:21:38;;;;;;;3.35;1.67;;;;;;;;;;5056136;28;20448;-64
2023/09/20 11:24:06;;;;;;;3.10;1.40;;;;;;;;;;5052409;28;20898;-64
2023/09/20 11:26:33;;;;;;;5.22;1.67;;;;;;;;;;5056032;28;20975;-60
2023/09/20 11:29:00;;;;;;;3.33;1.70;;;;;;;;;;5052043;28;20844;-63
2023/09/20 11:31:30;;;;;;;2.20;1.10;;;;;;;;;;5055732;28;20502;-64
2023/09/20 11:33:58;;;;;;;3.70;1.17;;;;;;;;;;5053564;28;20414;-62
2023/09/20 11:36:25;;;;;;;2.93;1.30;;;;;;;;;;5069368;28;20407;-62
2023/09/20 11:38:53;;;;;;;3.63;1.10;;;;;;;;;;5065927;28;20424;-62
2023/09/20 11:41:22;;;;;;;3.55;1.38;;;;;;;;;;5067996;28;20418;-62
2023/09/20 11:43:49;;;;;;;3.20;1.20;;;;;;;;;;5061772;28;20413;-63
2023/09/20 11:46:18;;;;;;;3.15;1.10;;;;;;;;;;5069409;28;20411;-62
2023/09/20 11:48:47;;;;;;;3.67;1.38;;;;;;;;;;5069123;28;20414;-63
2023/09/20 11:51:14;;;;;;;2.80;1.20;;;;;;;;;;5061339;28;20407;-63
2023/09/20 11:53:44;;;;;;;4.75;1.20;;;;;;;;;;5058025;28;20420;-63
2023/09/20 11:56:11;;;;;;;3.13;1.20;;;;;;;;;;5062473;28;20414;-63
2023/09/20 11:58:38;;;;;;;3.08;1.10;;;;;;;;;;5061068;28;20427;-63
2023/09/20 12:01:08;;;;;;;2.67;1.15;;;;;;;;;;5057171;28;20415;-62
2023/09/20 12:03:35;;;;;;;4.25;1.48;;;;;;;;;;5055292;28;20413;-63
2023/09/20 12:06:03;;;;;;;2.08;1.02;;;;;;;;;;5068143;28;20419;-63
2023/09/20 12:08:34;;;;;;;2.80;1.10;;;;;;;;;;5058820;28;20417;-63
2023/09/20 12:11:01;;;;;;;3.08;1.17;;;;;;;;;;5051869;28;20796;-62
2023/09/20 12:13:28;;;;;;;2.53;1.05;;;;;;;;;;5050499;28;20405;-63
2023/09/20 12:15:55;;;;;;;3.42;1.10;;;;;;;;;;5057565;28;20436;-63
2023/09/20 12:18:25;;;;;;;3.47;1.10;;;;;;;;;;5056463;28;20488;-63
2023/09/20 12:20:52;;;;;;;2.13;1.00;;;;;;;;;;5056503;28;20420;-63
2023/09/20 12:23:20;;;;;;;2.55;0.90;;;;;;;;;;5059528;28;20476;-65
2023/09/20 12:25:47;;;;;;;1.77;0.90;;;;;;;;;;5061169;28;20410;-68
2023/09/20 12:28:15;;;;;;;3.70;1.07;;;;;;;;;;5060756;28;20415;-63
2023/09/20 12:30:42;;;;;;;2.20;1.00;;;;;;;;;;5055762;28;20440;-66
2023/09/20 12:33:09;;;;;;;2.63;1.20;;;;;;;;;;5059423;28;20411;-67
2023/09/20 12:35:40;;;;;;;3.17;1.00;;;;;;;;;;5055159;28;20899;-70
2023/09/20 12:38:07;;;;;;;4.43;1.30;;;;;;;;;;5059029;28;20590;-66
2023/09/20 12:40:36;;;;;;;3.75;1.40;;;;;;;;;;5057307;28;20807;-66
2023/09/20 12:43:03;;;;;;;5.33;1.63;;;;;;;;;;5058673;28;20420;-64
2023/09/20 12:45:30;;;;;;;2.38;1.20;;;;;;;;;;5057958;28;20414;-64
2023/09/20 12:47:57;;;;;;;2.58;1.27;;;;;;;;;;5057673;28;20500;-65
2023/09/20 12:50:24;;;;;;;3.20;1.33;;;;;;;;;;5054991;28;20501;-63
2023/09/20 12:52:51;;;;;;;3.38;1.40;;;;;;;;;;5056340;28;20885;-65
2023/09/20 12:55:18;;;;;;;4.43;1.30;;;;;;;;;;5057322;28;21211;-65
2023/09/20 12:57:47;;;;;;;2.72;1.30;;;;;;;;;;5056346;28;20433;-65
2023/09/20 13:00:16;;;;;;;3.20;1.27;;;;;;;;;;5055803;28;20862;-65
2023/09/20 13:02:45;;;;;;;3.15;1.40;;;;;;;;;;5056204;28;20413;-65
2023/09/20 13:05:13;;;;;;;4.68;1.30;;;;;;;;;;5056251;28;20417;-64
2023/09/20 13:07:40;;;;;;;2.50;1.40;;;;;;;;;;5057582;28;20947;-65
2023/09/20 13:10:13;;;;;;;2.92;1.30;;;;;;;;;;5053834;28;20446;-64
2023/09/20 13:12:40;;;;;;;2.60;1.30;;;;;;;;;;5057620;28;20419;-64
2023/09/20 13:15:12;;;;;;;5.13;1.40;;;;;;;;;;5055587;28;21809;-61
2023/09/20 13:17:40;;;;;;;3.95;1.73;;;;;;;;;;5056859;28;20429;-65
2023/09/20 13:20:09;;;;;;;2.75;1.60;;;;;;;;;;5056151;28;20494;-65
2023/09/20 13:22:36;;;;;;;3.00;1.58;;;;;;;;;;5056549;28;20413;-65
2023/09/20 13:25:03;;;;;;;2.50;1.40;;;;;;;;;;5054340;28;20413;-64
2023/09/20 13:27:30;;;;;;;3.60;1.33;;;;;;;;;;5056284;28;20482;-64
2023/09/20 13:29:57;;;;;;;3.30;1.50;;;;;;;;;;5054051;28;20961;-64
2023/09/20 13:32:26;;;;;;;3.88;1.30;;;;;;;;;;5056857;28;20416;-64
2023/09/20 13:34:54;;;;;;;3.28;1.40;;;;;;;;;;5056617;28;20421;-62
2023/09/20 13:37:21;;;;;;;3.08;1.48;;;;;;;;;;5056520;28;20497;-65
2023/09/20 13:39:48;;;;;;;2.70;1.50;;;;;;;;;;5055529;28;20806;-68
2023/09/20 13:42:15;;;;;;;4.57;1.60;;;;;;;;;;5060221;28;20411;-67
2023/09/20 13:44:42;;;;;;;3.22;1.45;;;;;;;;;;5054650;28;20417;-63
2023/09/20 13:47:09;;;;;;;3.85;1.63;;;;;;;;;;5056811;28;20759;-62
2023/09/20 13:49:39;;;;;;;3.28;1.50;;;;;;;;;;5055579;28;20453;-64
2023/09/20 13:52:08;;;;;;;4.35;1.52;;;;;;;;;;5056866;28;20413;-61
2023/09/20 13:54:35;;;;;;;3.80;1.58;;;;;;;;;;5055280;28;20414;-62
2023/09/20 13:57:02;;;;;;;3.35;1.77;;;;;;;;;;5055636;28;20409;-61
2023/09/20 13:59:30;;;;;;;3.95;1.63;;;;;;;;;;5058980;28;20914;-58
2023/09/20 14:02:00;;;;;;;4.03;1.60;;;;;;;;;;5055762;28;20791;-60
2023/09/20 14:04:29;;;;;;;4.10;1.52;;;;;;;;;;5060146;28;20505;-61
2023/09/20 14:06:58;;;;;;;4.10;1.65;;;;;;;;;;5056159;28;20413;-59
2023/09/20 14:09:25;;;;;;;2.45;1.60;;;;;;;;;;5059678;28;20423;-61
2023/09/20 14:11:52;;;;;;;3.42;1.58;;;;;;;;;;5060143;28;20413;-62
2023/09/20 14:14:26;;;;;;;4.40;1.90;;;;;;;;;;5060988;28;20886;-61
2023/09/20 14:16:54;;;;;;;3.45;1.50;;;;;;;;;;5054874;28;20413;-63
2023/09/20 14:19:21;;;;;;;4.40;1.80;;;;;;;;;;5057942;28;20974;-62
2023/09/20 14:21:48;;;;;;;4.60;1.60;;;;;;;;;;5053797;28;20493;-63
2023/09/20 14:24:16;;;;;;;4.18;1.50;;;;;;;;;;5060531;28;20451;-64
2023/09/20 14:26:45;;;;;;;3.10;1.43;;;;;;;;;;5053195;28;20417;-64
2023/09/20 14:29:16;;;;;;;3.22;1.58;;;;;;;;;;5060111;28;20508;-63
2023/09/20 14:31:45;;;;;;;5.03;1.60;;;;;;;;;;5053021;28;20475;-62
2023/09/20 14:34:12;;;;;;;4.90;1.70;;;;;;;;;;5058832;28;20462;-62
2023/09/20 14:36:40;;;;;;;2.83;1.77;;;;;;;;;;5051129;28;20409;-63
2023/09/20 14:39:08;;;;;;;3.38;1.70;;;;;;;;;;5058320;28;20517;-63
2023/09/20 14:41:36;;;;;;;3.10;1.60;;;;;;;;;;5051711;28;20496;-63
2023/09/20 14:44:03;;;;;;;4.72;1.83;;;;;;;;;;5057656;28;20421;-62
2023/09/20 14:46:30;;;;;;;4.57;1.70;;;;;;;;;;5051425;28;20485;-62
2023/09/20 14:48:58;;;;;;;4.22;1.70;;;;;;;;;;5057188;28;20463;-64
2023/09/20 14:51:26;;;;;;;3.00;1.83;;;;;;;;;;5051195;28;20417;-63
2023/09/20 14:53:55;;;;;;;4.70;1.77;;;;;;;;;;5056014;28;20421;-64
2023/09/20 14:56:22;;;;;;;3.85;1.88;;;;;;;;;;5055148;28;20407;-63
2023/09/20 14:58:50;;;;;;;5.50;1.90;;;;;;;;;;5053752;28;20429;-64
2023/09/20 15:01:19;;;;;;;4.75;2.08;;;;;;;;;;5057804;28;20423;-63
2023/09/20 15:03:46;;;;;;;3.08;1.80;;;;;;;;;;5054644;28;20413;-63
2023/09/20 15:06:17;;;;;;;4.00;1.88;;;;;;;;;;5054579;28;20412;-63
2023/09/20 15:08:45;;;;;;;4.88;1.75;;;;;;;;;;5056354;28;20405;-63
2023/09/20 15:11:13;;;;;;;3.53;1.90;;;;;;;;;;5053589;28;20909;-62
2023/09/20 15:13:40;;;;;;;3.45;1.90;;;;;;;;;;5053704;28;20496;-62
2023/09/20 15:16:15;;;;;;;3.25;1.70;;;;;;;;;;5052890;28;20641;-63
2023/09/20 15:18:43;;;;;;;3.60;1.70;;;;;;;;;;5054841;28;20421;-62
2023/09/20 15:21:10;;;;;;;3.78;1.63;;;;;;;;;;5056886;28;20420;-62
2023/09/20 15:23:37;;;;;;;3.47;2.10;;;;;;;;;;5052938;28;20819;-63
2023/09/20 15:26:11;;;;;;;2.85;1.73;;;;;;;;;;5055642;28;20424;-62
2023/09/20 15:28:39;;;;;;;3.75;1.90;;;;;;;;;;5052718;28;20409;-61
2023/09/20 15:31:06;;;;;;;2.63;1.75;;;;;;;;;;5055613;28;20417;-59